createdAt,value
2022-08-28T00:08:22.457Z,23.11
2022-08-28T00:10:56.517Z,23.10
2022-08-28T00:13:32.458Z,23.09
2022-08-28T00:16:07.282Z,23.09
2022-08-28T00:18:43.339Z,23.10
2022-08-28T00:34:39.407Z,23.07
2022-08-28T00:37:19.469Z,23.06
2022-08-28T00:39:59.010Z,23.04
2022-08-28T00:42:32.468Z,23.03
2022-08-28T00:45:08.247Z,23.02
2022-08-28T00:47:42.447Z,23.01
2022-08-28T00:50:28.409Z,22.99
2022-08-28T01:00:14.447Z,22.91
2022-08-28T01:02:48.208Z,22.90
2022-08-28T01:05:23.487Z,22.90
2022-08-28T01:07:59.507Z,22.88
2022-08-28T01:10:37.487Z,22.87
2022-08-28T01:13:11.589Z,22.86
2022-08-28T01:15:47.519Z,22.86
2022-08-28T01:28:59.428Z,22.81
2022-08-28T01:31:33.210Z,22.81
2022-08-28T01:34:08.488Z,22.78
2022-08-28T01:36:42.767Z,22.76
2022-08-28T01:39:20.470Z,22.75
2022-08-28T01:55:58.413Z,22.70
2022-08-28T01:58:39.582Z,22.68
2022-08-28T02:01:17.473Z,22.67
2022-08-28T02:03:57.557Z,22.65
2022-08-28T02:06:31.134Z,22.63
2022-08-28T02:09:05.463Z,22.62
2022-08-28T02:22:17.500Z,22.57
2022-08-28T02:24:51.113Z,22.55
2022-08-28T02:27:26.612Z,22.55
2022-08-28T02:30:00.179Z,22.53
2022-08-28T02:32:34.480Z,22.52
2022-08-28T02:35:12.162Z,22.53
2022-08-28T02:48:15.574Z,22.47
2022-08-28T02:50:57.452Z,22.47
2022-08-28T02:53:32.034Z,22.43
2022-08-28T02:56:06.513Z,22.41
2022-08-28T02:58:40.694Z,22.40
2022-08-28T03:01:18.494Z,22.37
2022-08-28T03:14:37.493Z,22.31
2022-08-28T03:17:11.034Z,22.31
2022-08-28T03:19:44.493Z,22.30
2022-08-28T03:22:19.293Z,22.30
2022-08-28T03:24:53.452Z,22.29
2022-08-28T03:27:26.952Z,22.29
2022-08-28T03:30:21.953Z,22.28
2022-08-28T03:40:39.467Z,22.22
2022-08-28T03:43:26.453Z,22.21
2022-08-28T03:46:04.989Z,22.19
2022-08-28T03:48:45.452Z,22.20
2022-08-28T03:51:29.441Z,22.19
2022-08-28T03:54:11.513Z,22.18
2022-08-28T04:07:28.513Z,22.11
2022-08-28T04:10:02.919Z,22.11
2022-08-28T04:12:36.553Z,22.09
2022-08-28T04:15:12.534Z,22.08
2022-08-28T04:17:47.453Z,22.08
2022-08-28T04:20:21.214Z,22.06
2022-08-28T04:36:36.477Z,22.01
2022-08-28T04:39:10.101Z,22.02
2022-08-28T04:41:44.454Z,22.01
2022-08-28T04:44:18.114Z,21.99
2022-08-28T04:46:51.453Z,21.97
2022-08-28T04:49:25.967Z,21.94
2022-08-28T05:02:16.466Z,21.81
2022-08-28T05:04:56.474Z,21.79
2022-08-28T05:07:29.992Z,21.80
2022-08-28T05:10:04.485Z,21.81
2022-08-28T05:12:38.974Z,21.82
2022-08-28T05:15:14.473Z,21.81
2022-08-28T05:31:09.542Z,21.79
2022-08-28T05:33:50.773Z,21.78
2022-08-28T05:36:32.948Z,21.79
2022-08-28T05:39:17.476Z,21.78
2022-08-28T05:55:54.416Z,21.68
2022-08-28T05:58:34.455Z,21.68
2022-08-28T06:01:13.233Z,21.66
2022-08-28T06:04:00.525Z,21.64
2022-08-28T06:06:35.892Z,21.64
2022-08-28T06:09:15.462Z,21.62
2022-08-28T06:22:32.473Z,21.60
2022-08-28T06:25:08.123Z,21.58
2022-08-28T06:27:41.513Z,21.56
2022-08-28T06:30:15.326Z,21.54
2022-08-28T06:32:49.474Z,21.53
2022-08-28T06:35:23.212Z,21.53
2022-08-28T06:48:13.482Z,21.54
2022-08-28T06:50:56.454Z,21.54
2022-08-28T06:53:30.453Z,21.51
2022-08-28T06:56:07.496Z,21.49
2022-08-28T06:58:43.393Z,21.45
2022-08-28T07:14:46.498Z,21.39
2022-08-28T07:17:19.952Z,21.35
2022-08-28T07:19:53.494Z,21.35
2022-08-28T07:22:27.113Z,21.32
2022-08-28T07:27:32.652Z,21.32
2022-08-28T07:30:01.773Z,21.33
2022-08-28T07:43:02.374Z,21.30
2022-08-28T07:45:44.583Z,21.28
2022-08-28T07:48:21.278Z,21.29
2022-08-28T07:50:55.455Z,21.25
2022-08-28T07:53:31.213Z,21.23
2022-08-28T07:56:15.454Z,21.21
2022-08-28T08:09:28.525Z,21.15
2022-08-28T08:12:04.156Z,21.14
2022-08-28T08:14:38.493Z,21.12
2022-08-28T08:17:11.975Z,21.10
2022-08-28T08:19:46.473Z,21.09
2022-08-28T08:36:27.433Z,21.03
2022-08-28T08:39:09.503Z,21.02
2022-08-28T08:41:48.384Z,21.00
2022-08-28T08:44:36.272Z,21.00
2022-08-28T08:47:16.973Z,20.98
2022-08-28T08:50:02.500Z,20.94
2022-08-28T09:03:11.592Z,20.93
2022-08-28T09:05:54.393Z,20.96
2022-08-28T09:08:45.474Z,20.98
2022-08-28T09:11:37.213Z,21.01
2022-08-28T09:14:29.481Z,21.00
2022-08-28T09:28:25.456Z,20.97
2022-08-28T09:31:08.034Z,20.97
2022-08-28T09:33:51.480Z,20.99
2022-08-28T09:36:35.105Z,20.99
2022-08-28T09:39:20.476Z,20.99
2022-08-28T09:42:04.893Z,21.00
2022-08-28T09:45:09.054Z,21.02
2022-08-28T09:55:21.433Z,21.04
2022-08-28T09:58:01.473Z,21.01
2022-08-28T10:00:48.476Z,21.02
2022-08-28T10:03:38.473Z,21.03
2022-08-28T10:06:33.158Z,21.01
2022-08-28T10:09:27.472Z,21.00
2022-08-28T10:22:53.474Z,20.98
2022-08-28T10:25:42.997Z,20.98
2022-08-28T10:28:47.473Z,21.00
2022-08-28T10:31:35.333Z,21.02
2022-08-28T10:34:38.473Z,21.03
2022-08-28T10:48:35.413Z,21.07
2022-08-28T10:51:35.374Z,21.08
2022-08-28T10:54:29.493Z,21.07
2022-08-28T10:57:18.893Z,21.07
2022-08-28T11:00:00.492Z,21.05
2022-08-28T11:02:35.945Z,21.03
2022-08-28T11:05:11.511Z,21.02
2022-08-28T11:15:41.393Z,21.03
2022-08-28T11:19:13.469Z,21.05
2022-08-28T11:21:54.773Z,21.03
2022-08-28T11:24:54.474Z,21.03
2022-08-28T11:27:33.941Z,21.03
2022-08-28T11:30:40.512Z,21.04
2022-08-28T11:43:53.473Z,21.09
2022-08-28T11:46:32.444Z,21.10
2022-08-28T11:49:48.957Z,21.13
2022-08-28T11:52:50.053Z,21.12
2022-08-28T11:55:50.483Z,21.14
2022-08-28T12:09:11.522Z,21.18
2022-08-28T12:12:08.353Z,21.16
2022-08-28T12:15:15.510Z,21.19
2022-08-28T12:17:53.373Z,21.19
2022-08-28T12:21:10.473Z,21.20
2022-08-28T12:23:59.046Z,21.20
2022-08-28T12:37:08.421Z,21.27
2022-08-28T12:39:49.453Z,21.30
2022-08-28T12:42:32.994Z,21.32
2022-08-28T12:45:16.434Z,21.33
2022-08-28T12:48:04.172Z,21.34
2022-08-28T12:50:48.292Z,21.36
2022-08-28T13:04:06.482Z,21.48
2022-08-28T13:06:41.413Z,21.49
2022-08-28T13:09:25.454Z,21.50
2022-08-28T13:11:59.013Z,21.54
2022-08-28T13:14:46.483Z,21.57
2022-08-28T13:31:35.413Z,21.72
2022-08-28T13:34:28.473Z,21.74
2022-08-28T13:37:07.177Z,21.80
2022-08-28T13:40:01.803Z,21.87
2022-08-28T13:42:38.113Z,21.90
2022-08-28T13:45:13.495Z,21.94
2022-08-28T13:58:25.477Z,22.23
2022-08-28T14:01:00.002Z,22.34
2022-08-28T14:03:33.493Z,22.40
2022-08-28T14:06:10.993Z,22.41
2022-08-28T14:08:52.473Z,22.43
2022-08-28T14:11:26.155Z,22.45
2022-08-28T14:24:16.413Z,22.49
2022-08-28T14:26:56.464Z,22.49
2022-08-28T14:29:30.154Z,22.51
2022-08-28T14:32:05.626Z,22.53
2022-08-28T14:34:38.953Z,22.58
2022-08-28T14:50:54.473Z,22.83
2022-08-28T14:53:33.092Z,22.93
2022-08-28T14:56:16.953Z,22.97
2022-08-28T14:58:51.393Z,22.99
2022-08-28T15:01:39.615Z,22.98
2022-08-28T15:04:20.043Z,22.96
2022-08-28T15:17:17.433Z,23.09
2022-08-28T15:19:57.493Z,23.12
2022-08-28T15:22:31.076Z,23.09
2022-08-28T15:25:04.453Z,23.07
2022-08-28T15:27:38.293Z,23.02
2022-08-28T15:30:13.473Z,22.98
2022-08-28T15:43:25.473Z,22.79
2022-08-28T15:45:59.031Z,22.75
2022-08-28T15:48:33.453Z,22.74
2022-08-28T15:51:06.993Z,22.71
2022-08-28T15:53:41.473Z,22.68
2022-08-28T15:56:18.293Z,22.66
2022-08-28T16:09:50.456Z,22.55
2022-08-28T16:12:30.493Z,22.57
2022-08-28T16:15:05.233Z,22.62
2022-08-28T16:17:38.493Z,22.73
2022-08-28T16:20:12.379Z,22.83
2022-08-28T16:22:47.493Z,22.90
2022-08-28T16:25:22.834Z,23.11
2022-08-28T16:38:11.413Z,24.89
2022-08-28T16:40:54.495Z,25.32
2022-08-28T16:43:34.753Z,25.68
2022-08-28T16:46:17.515Z,25.99
2022-08-28T16:48:52.853Z,26.29
2022-08-28T16:51:27.454Z,26.50
2022-08-28T17:04:40.099Z,26.57
2022-08-28T17:07:14.975Z,26.08
2022-08-28T17:09:48.500Z,25.74
2022-08-28T17:12:22.313Z,25.54
2022-08-28T17:14:56.495Z,25.56
2022-08-28T17:31:33.477Z,24.25
2022-08-28T17:34:13.473Z,24.03
2022-08-28T17:36:47.595Z,23.84
2022-08-28T17:39:22.474Z,23.69
2022-08-28T17:41:55.993Z,23.53
2022-08-28T17:44:29.513Z,23.42
2022-08-28T17:57:41.453Z,22.96
2022-08-28T18:00:15.945Z,22.89
2022-08-28T18:02:51.633Z,22.83
2022-08-28T18:05:25.493Z,22.79
2022-08-28T18:08:00.853Z,22.74
2022-08-28T18:10:35.873Z,22.67
2022-08-28T18:23:38.430Z,22.48
2022-08-28T18:26:18.473Z,22.46
2022-08-28T18:28:52.735Z,22.44
2022-08-28T18:31:26.491Z,22.41
2022-08-28T18:34:00.354Z,22.36
2022-08-28T18:36:34.473Z,22.34
2022-08-28T18:39:10.301Z,22.32
2022-08-28T18:51:21.286Z,22.16
2022-08-28T18:54:02.436Z,22.14
2022-08-28T18:56:38.377Z,22.13
2022-08-28T18:59:13.476Z,22.08
2022-08-28T19:01:47.455Z,22.06
2022-08-28T19:04:21.473Z,22.06
2022-08-28T19:17:34.894Z,22.02
2022-08-28T19:20:15.416Z,22.01
2022-08-28T19:22:55.473Z,21.99
2022-08-28T19:25:30.535Z,21.98
2022-08-28T19:28:06.500Z,21.96
2022-08-28T19:30:40.039Z,21.96
2022-08-28T19:46:22.517Z,21.85
2022-08-28T19:48:56.253Z,21.85
2022-08-28T19:51:30.493Z,21.83
2022-08-28T19:54:05.594Z,21.79
2022-08-28T19:56:40.454Z,21.75
2022-08-28T19:59:14.013Z,21.76
2022-08-28T20:11:22.475Z,21.64
2022-08-28T20:14:06.833Z,21.63
2022-08-28T20:16:46.433Z,21.61
2022-08-28T20:19:28.473Z,21.60
2022-08-28T20:22:02.213Z,21.57
2022-08-28T20:24:36.453Z,21.54
2022-08-28T20:37:48.474Z,21.46
2022-08-28T20:40:22.487Z,21.45
2022-08-28T20:42:56.455Z,21.44
2022-08-28T20:45:30.252Z,21.41
2022-08-28T20:48:04.518Z,21.38
2022-08-28T20:50:37.973Z,21.37
2022-08-28T21:04:06.489Z,21.25
2022-08-28T21:06:46.474Z,21.23
2022-08-28T21:09:20.033Z,21.22
2022-08-28T21:12:14.473Z,21.21
2022-08-28T21:14:51.580Z,21.20
2022-08-28T21:17:33.818Z,21.18
2022-08-28T21:20:13.856Z,21.17
2022-08-28T21:33:09.415Z,21.15
2022-08-28T21:35:51.454Z,21.13
2022-08-28T21:38:25.176Z,21.11
2022-08-28T21:40:58.473Z,21.10
2022-08-28T21:43:32.293Z,21.12
2022-08-28T21:46:11.486Z,21.13
2022-08-28T21:59:23.454Z,21.08
2022-08-28T22:01:59.436Z,21.06
2022-08-28T22:04:33.493Z,21.04
2022-08-28T22:07:06.969Z,21.01
2022-08-28T22:09:40.481Z,21.00
2022-08-28T22:26:21.406Z,20.91
2022-08-28T22:29:02.521Z,20.92
2022-08-28T22:31:36.707Z,20.90
2022-08-28T22:34:20.445Z,20.91
2022-08-28T22:36:54.022Z,20.89
2022-08-28T22:39:27.501Z,20.88
2022-08-28T22:52:39.467Z,20.81
2022-08-28T22:55:16.146Z,20.78
2022-08-28T22:57:56.488Z,20.75
2022-08-28T23:00:32.066Z,20.74
2022-08-28T23:03:06.511Z,20.75
2022-08-28T23:05:40.187Z,20.73
2022-08-28T23:18:35.230Z,20.69
2022-08-28T23:21:30.467Z,20.67
2022-08-28T23:24:05.127Z,20.65
2022-08-28T23:26:40.273Z,20.61
2022-08-28T23:29:14.267Z,20.58
2022-08-28T23:44:45.593Z,20.50
2022-08-28T23:47:19.967Z,20.50
2022-08-28T23:49:53.467Z,20.49
2022-08-28T23:52:26.987Z,20.48
2022-08-28T23:55:00.446Z,20.46
2022-08-28T23:57:34.167Z,20.45
